createdAt,value
2023-11-23T00:14:39.988Z,24.44
2023-11-23T00:30:04.999Z,24.41
2023-11-23T00:45:29.953Z,24.21
2023-11-23T01:00:55.991Z,23.97
2023-11-23T01:16:20.895Z,23.64
2023-11-23T01:31:46.939Z,23.33
2023-11-23T01:47:12.933Z,23.01
2023-11-23T02:02:37.943Z,22.73
2023-11-23T02:18:03.003Z,22.33
2023-11-23T02:33:28.011Z,21.82
2023-11-23T02:48:52.925Z,21.16
2023-11-23T03:04:17.910Z,20.66
2023-11-23T03:19:43.865Z,20.26
2023-11-23T03:35:08.890Z,19.86
2023-11-23T03:50:33.866Z,19.45
2023-11-23T04:05:58.956Z,19.23
2023-11-23T04:21:23.797Z,19.02
2023-11-23T04:36:49.781Z,18.87
2023-11-23T04:52:15.734Z,18.69
2023-11-23T05:07:40.845Z,18.50
2023-11-23T05:23:05.767Z,18.40
2023-11-23T05:38:30.766Z,18.68
2023-11-23T05:53:55.735Z,18.64
2023-11-23T06:09:20.820Z,18.21
2023-11-23T06:24:45.761Z,17.94
2023-11-23T06:40:10.712Z,17.73
2023-11-23T06:55:35.898Z,18.05
2023-11-23T07:11:00.739Z,18.56
2023-11-23T07:26:25.698Z,18.70
2023-11-23T07:41:50.695Z,18.40
2023-11-23T07:57:15.661Z,17.90
2023-11-23T08:12:41.711Z,18.34
2023-11-23T08:28:06.680Z,18.97
2023-11-23T08:43:32.645Z,19.62
2023-11-23T08:58:58.644Z,19.89
2023-11-23T09:14:24.675Z,20.01
2023-11-23T09:29:50.658Z,20.06
2023-11-23T09:45:16.688Z,20.05
2023-11-23T10:00:42.668Z,20.01
2023-11-23T10:16:07.687Z,19.96
2023-11-23T10:31:33.535Z,19.90
2023-11-23T10:46:58.584Z,19.87
2023-11-23T11:02:24.527Z,19.82
2023-11-23T11:17:49.687Z,19.79
2023-11-23T11:33:15.816Z,19.72
2023-11-23T11:48:41.636Z,19.72
2023-11-23T12:04:07.642Z,19.73
2023-11-23T12:19:33.501Z,19.69
2023-11-23T12:34:59.487Z,19.66
2023-11-23T12:50:25.466Z,19.65
2023-11-23T13:05:51.444Z,19.63
2023-11-23T13:21:17.584Z,19.57
2023-11-23T13:36:43.521Z,19.60
2023-11-23T13:52:09.508Z,19.61
2023-11-23T14:07:35.398Z,19.58
2023-11-23T14:23:01.492Z,19.54
2023-11-23T14:39:02.361Z,19.49
2023-11-23T14:54:34.888Z,19.49
2023-11-23T15:09:54.468Z,19.43
2023-11-23T15:25:21.488Z,19.39
2023-11-23T15:40:47.565Z,19.40
2023-11-23T15:56:13.534Z,19.34
2023-11-23T16:11:39.520Z,19.32
2023-11-23T16:27:04.463Z,19.27
2023-11-23T16:42:29.462Z,19.26
2023-11-23T16:57:54.390Z,19.48
2023-11-23T17:13:20.465Z,19.88
2023-11-23T17:28:46.448Z,20.25
2023-11-23T17:44:12.434Z,20.59
2023-11-23T17:59:46.704Z,20.88
2023-11-23T18:15:03.508Z,21.12
2023-11-23T18:30:29.711Z,21.38
2023-11-23T18:45:56.442Z,21.65
2023-11-23T19:01:22.483Z,21.88
2023-11-23T19:16:48.501Z,22.10
2023-11-23T19:32:14.602Z,22.57
2023-11-23T19:47:40.436Z,22.88
2023-11-23T20:03:07.763Z,23.21
2023-11-23T20:19:12.351Z,23.45
2023-11-23T20:34:37.591Z,23.69
2023-11-23T20:50:02.449Z,23.94
2023-11-23T21:05:27.500Z,24.12
2023-11-23T21:20:52.470Z,24.33
2023-11-23T21:36:18.535Z,24.40
2023-11-23T21:51:43.497Z,24.39
2023-11-23T22:07:09.564Z,24.36
2023-11-23T22:22:35.440Z,24.43
2023-11-23T22:38:00.549Z,24.45
2023-11-23T22:53:25.450Z,24.55
2023-11-23T23:08:50.407Z,24.37
2023-11-23T23:24:15.452Z,24.46
2023-11-23T23:39:40.409Z,24.52
2023-11-23T23:55:05.442Z,24.76
